Time;durP1;ratioP1;P1;durP2;ratioP2;P2;SDS_P1;SDS_P2;PMS_P1;PMS_P2;Temp;Humidity;BMP_temperature;BMP_pressure;BME280_temperature;BME280_humidity;BME280_pressure;Samples;Min_cycle;Max_cycle;Signal;HPM_P1;HPM_P2
2021/05/09 00:01:36;;;;;;;17.80;9.95;;;;;;;;;;5073585;28;20028;-72
2021/05/09 00:04:03;;;;;;;20.77;9.75;;;;;;;;;;5090960;28;20036;-72
2021/05/09 00:06:29;;;;;;;19.48;9.52;;;;;;;;;;5092584;28;20019;-72
2021/05/09 00:08:56;;;;;;;19.77;11.07;;;;;;;;;;5092554;28;20128;-72
2021/05/09 00:11:22;;;;;;;19.58;11.27;;;;;;;;;;5092211;28;20051;-72
2021/05/09 00:13:48;;;;;;;19.00;11.35;;;;;;;;;;5090382;28;20031;-72
2021/05/09 00:16:14;;;;;;;23.15;12.20;;;;;;;;;;5091972;28;20107;-72
2021/05/09 00:18:41;;;;;;;18.65;10.38;;;;;;;;;;5090343;28;20020;-73
2021/05/09 00:21:07;;;;;;;20.23;10.45;;;;;;;;;;5074696;28;20402;-72
2021/05/09 00:23:33;;;;;;;24.10;11.65;;;;;;;;;;5091725;28;20032;-73
2021/05/09 00:25:59;;;;;;;22.02;10.10;;;;;;;;;;5092852;28;20032;-72
2021/05/09 00:28:25;;;;;;;21.95;10.45;;;;;;;;;;5099909;28;20020;-73
2021/05/09 00:30:51;;;;;;;16.85;9.68;;;;;;;;;;5098904;28;20406;-72
2021/05/09 00:33:18;;;;;;;20.65;10.10;;;;;;;;;;5096956;28;20116;-72
2021/05/09 00:35:44;;;;;;;19.42;10.43;;;;;;;;;;5090951;28;20032;-72
2021/05/09 00:38:10;;;;;;;17.67;9.88;;;;;;;;;;5092343;28;20028;-72
2021/05/09 00:40:38;;;;;;;20.70;10.80;;;;;;;;;;5091132;28;20028;-74
2021/05/09 00:43:04;;;;;;;19.45;9.90;;;;;;;;;;5092220;28;20048;-74
2021/05/09 00:45:31;;;;;;;20.85;10.88;;;;;;;;;;5087533;28;20027;-73
2021/05/09 00:47:57;;;;;;;18.20;9.55;;;;;;;;;;5091564;28;20145;-74
2021/05/09 00:50:23;;;;;;;17.77;10.20;;;;;;;;;;5091299;28;20085;-76
2021/05/09 00:52:49;;;;;;;18.52;10.65;;;;;;;;;;5094266;28;20020;-73
2021/05/09 00:55:16;;;;;;;22.15;10.50;;;;;;;;;;5074915;28;20791;-74
2021/05/09 00:57:44;;;;;;;16.20;9.85;;;;;;;;;;5072742;28;20092;-74
2021/05/09 01:00:11;;;;;;;15.48;9.43;;;;;;;;;;5088842;28;20070;-75
2021/05/09 01:02:39;;;;;;;19.23;10.45;;;;;;;;;;5089562;28;20059;-73
2021/05/09 01:05:06;;;;;;;20.40;9.25;;;;;;;;;;5091581;28;20028;-73
2021/05/09 01:07:32;;;;;;;17.58;8.88;;;;;;;;;;5092411;28;20016;-75
2021/05/09 01:10:00;;;;;;;23.65;10.35;;;;;;;;;;5090610;28;20553;-74
2021/05/09 01:12:26;;;;;;;20.02;9.90;;;;;;;;;;5092164;28;20082;-74
2021/05/09 01:14:52;;;;;;;19.50;10.30;;;;;;;;;;5089734;28;20107;-73
2021/05/09 01:17:18;;;;;;;16.65;9.27;;;;;;;;;;5091622;28;20034;-73
2021/05/09 01:19:44;;;;;;;18.02;9.93;;;;;;;;;;5091026;28;20077;-73
2021/05/09 01:22:12;;;;;;;21.65;8.95;;;;;;;;;;5090461;28;20032;-72
2021/05/09 01:24:38;;;;;;;15.70;8.82;;;;;;;;;;5064223;28;20412;-74
2021/05/09 01:27:05;;;;;;;18.63;9.27;;;;;;;;;;5088630;28;20020;-72
2021/05/09 01:29:32;;;;;;;16.33;9.27;;;;;;;;;;5090427;28;20436;-74
2021/05/09 01:31:58;;;;;;;22.95;10.02;;;;;;;;;;5090762;28;20051;-74
2021/05/09 01:34:25;;;;;;;16.00;9.25;;;;;;;;;;5090936;28;20039;-75
2021/05/09 01:36:51;;;;;;;15.23;8.55;;;;;;;;;;5091899;28;20139;-73
2021/05/09 01:39:17;;;;;;;21.48;9.55;;;;;;;;;;5071471;28;20483;-73
2021/05/09 01:41:43;;;;;;;18.40;8.68;;;;;;;;;;5088379;28;20035;-74
2021/05/09 01:44:09;;;;;;;16.65;8.60;;;;;;;;;;5090214;28;20119;-73
2021/05/09 01:46:35;;;;;;;21.60;10.38;;;;;;;;;;5090906;28;20078;-74
2021/05/09 01:49:01;;;;;;;22.58;10.00;;;;;;;;;;5069601;28;20036;-74
2021/05/09 01:51:27;;;;;;;18.60;9.10;;;;;;;;;;5086849;28;20016;-74
2021/05/09 01:53:54;;;;;;;17.92;9.43;;;;;;;;;;5091207;28;20099;-74
2021/05/09 01:56:20;;;;;;;17.55;10.02;;;;;;;;;;5088250;28;20387;-74
2021/05/09 01:58:46;;;;;;;19.23;8.35;;;;;;;;;;5090260;28;20044;-74
2021/05/09 02:01:12;;;;;;;18.85;9.50;;;;;;;;;;5089639;28;20039;-75
2021/05/09 02:03:38;;;;;;;16.90;9.10;;;;;;;;;;5090276;28;20020;-75
2021/05/09 02:06:04;;;;;;;17.25;8.77;;;;;;;;;;5073394;28;20040;-74
2021/05/09 02:08:30;;;;;;;22.42;10.23;;;;;;;;;;5090184;28;20411;-78
2021/05/09 02:10:56;;;;;;;17.23;8.40;;;;;;;;;;5072190;28;20415;-73
2021/05/09 02:13:22;;;;;;;20.27;9.57;;;;;;;;;;5089638;28;20027;-74
2021/05/09 02:15:49;;;;;;;15.23;8.82;;;;;;;;;;5089558;28;20508;-74
2021/05/09 02:18:15;;;;;;;17.42;8.38;;;;;;;;;;5089878;28;20060;-72
2021/05/09 02:20:41;;;;;;;20.13;10.02;;;;;;;;;;5089119;28;20024;-75
2021/05/09 02:23:07;;;;;;;18.45;10.30;;;;;;;;;;5090019;28;20085;-74
2021/05/09 02:25:33;;;;;;;21.67;9.88;;;;;;;;;;5088286;28;20035;-75
2021/05/09 02:27:59;;;;;;;19.05;9.00;;;;;;;;;;5072279;28;20044;-75
2021/05/09 02:30:25;;;;;;;13.65;8.13;;;;;;;;;;5089109;28;20028;-74
2021/05/09 02:32:52;;;;;;;17.00;9.40;;;;;;;;;;5087707;28;20073;-75
2021/05/09 02:35:18;;;;;;;19.60;8.65;;;;;;;;;;5089894;28;20035;-74
2021/05/09 02:37:44;;;;;;;13.77;8.23;;;;;;;;;;5090230;28;20118;-75
2021/05/09 02:40:10;;;;;;;19.05;8.25;;;;;;;;;;5088800;28;20032;-75
2021/05/09 02:42:36;;;;;;;15.00;8.13;;;;;;;;;;5087668;28;20028;-74
2021/05/09 02:45:03;;;;;;;18.50;8.25;;;;;;;;;;5089448;28;20036;-74
2021/05/09 02:47:30;;;;;;;15.52;9.23;;;;;;;;;;5089831;28;20085;-74
2021/05/09 02:49:56;;;;;;;14.32;8.35;;;;;;;;;;5087378;28;20020;-75
2021/05/09 02:52:23;;;;;;;21.42;10.18;;;;;;;;;;5089779;28;20016;-78
2021/05/09 02:54:49;;;;;;;17.98;10.02;;;;;;;;;;5088193;28;20047;-75
2021/05/09 02:57:15;;;;;;;16.65;8.95;;;;;;;;;;5089574;28;20031;-75
2021/05/09 02:59:41;;;;;;;19.02;9.25;;;;;;;;;;5069844;28;20036;-75
2021/05/09 03:02:07;;;;;;;16.38;9.00;;;;;;;;;;5089824;28;20528;-75
2021/05/09 03:04:33;;;;;;;20.52;10.38;;;;;;;;;;5088147;28;20510;-76
2021/05/09 03:06:59;;;;;;;16.35;8.80;;;;;;;;;;5089709;28;20027;-75
2021/05/09 03:09:25;;;;;;;17.77;8.27;;;;;;;;;;5087556;28;20046;-75
2021/05/09 03:11:51;;;;;;;15.65;7.85;;;;;;;;;;5071307;28;20065;-74
2021/05/09 03:14:17;;;;;;;16.25;8.07;;;;;;;;;;5088655;28;20031;-75
2021/05/09 03:16:44;;;;;;;16.25;8.45;;;;;;;;;;5089799;28;20103;-75
2021/05/09 03:19:10;;;;;;;17.02;8.88;;;;;;;;;;5087971;28;20032;-74
2021/05/09 03:21:36;;;;;;;17.25;8.40;;;;;;;;;;5089809;28;20028;-75
2021/05/09 03:24:02;;;;;;;19.55;9.18;;;;;;;;;;5088600;28;20020;-73
2021/05/09 03:26:28;;;;;;;16.02;8.25;;;;;;;;;;5088104;28;20407;-75
2021/05/09 03:28:54;;;;;;;14.93;8.07;;;;;;;;;;5086801;28;20092;-73
2021/05/09 03:31:20;;;;;;;16.85;7.95;;;;;;;;;;5089289;28;20048;-73
2021/05/09 03:33:46;;;;;;;18.42;9.10;;;;;;;;;;5088520;28;20024;-73
2021/05/09 03:36:13;;;;;;;15.57;7.95;;;;;;;;;;5080531;28;20040;-74
2021/05/09 03:38:39;;;;;;;16.27;8.38;;;;;;;;;;5088318;28;20480;-77
2021/05/09 03:41:05;;;;;;;18.42;7.80;;;;;;;;;;5089365;28;20486;-73
2021/05/09 03:43:31;;;;;;;21.25;8.85;;;;;;;;;;5068054;28;20151;-74
2021/05/09 03:45:57;;;;;;;15.90;7.82;;;;;;;;;;5089102;28;20071;-74
2021/05/09 03:48:23;;;;;;;15.45;7.45;;;;;;;;;;5070573;28;20028;-78
2021/05/09 03:50:49;;;;;;;17.30;8.25;;;;;;;;;;5088787;28;20020;-74
2021/05/09 03:53:16;;;;;;;15.70;7.45;;;;;;;;;;5070086;28;20020;-73
2021/05/09 03:55:42;;;;;;;17.73;7.70;;;;;;;;;;5085467;28;20646;-73
2021/05/09 03:58:08;;;;;;;16.20;8.07;;;;;;;;;;5063275;28;20055;-73
2021/05/09 04:00:34;;;;;;;13.65;7.90;;;;;;;;;;5083866;28;20046;-74
2021/05/09 04:03:00;;;;;;;13.20;6.97;;;;;;;;;;5087848;28;20024;-74
2021/05/09 04:05:26;;;;;;;14.93;7.75;;;;;;;;;;5088693;28;20016;-74
2021/05/09 04:07:52;;;;;;;19.15;7.82;;;;;;;;;;5071362;28;20020;-73
2021/05/09 04:10:18;;;;;;;13.35;7.20;;;;;;;;;;5088665;28;20112;-73
2021/05/09 04:12:44;;;;;;;15.13;7.30;;;;;;;;;;5086747;28;20081;-74
2021/05/09 04:15:10;;;;;;;15.30;6.90;;;;;;;;;;5088657;28;20040;-73
2021/05/09 04:17:36;;;;;;;16.05;6.45;;;;;;;;;;5089805;28;20509;-74
2021/05/09 04:20:03;;;;;;;12.40;6.38;;;;;;;;;;5089569;28;20028;-74
2021/05/09 04:22:29;;;;;;;11.43;6.45;;;;;;;;;;5091711;28;20033;-74
2021/05/09 04:24:55;;;;;;;12.93;6.88;;;;;;;;;;5074540;28;20035;-73
2021/05/09 04:27:21;;;;;;;13.85;6.35;;;;;;;;;;5073548;28;20017;-73
2021/05/09 04:29:47;;;;;;;12.95;6.45;;;;;;;;;;5091810;28;20020;-73
2021/05/09 04:32:13;;;;;;;17.10;6.38;;;;;;;;;;5092250;28;20040;-73
2021/05/09 04:34:39;;;;;;;11.52;5.85;;;;;;;;;;5092427;28;20020;-73
2021/05/09 04:37:05;;;;;;;10.88;6.22;;;;;;;;;;5092980;28;20032;-73
2021/05/09 04:39:31;;;;;;;12.88;6.55;;;;;;;;;;5091332;28;20228;-74
2021/05/09 04:41:57;;;;;;;14.75;6.10;;;;;;;;;;5092200;28;20429;-74
2021/05/09 04:44:23;;;;;;;13.30;6.38;;;;;;;;;;5090270;28;20020;-74
2021/05/09 04:46:50;;;;;;;14.88;6.28;;;;;;;;;;5092732;28;20024;-73
2021/05/09 04:49:16;;;;;;;16.00;7.28;;;;;;;;;;5092926;28;20148;-74
2021/05/09 04:51:42;;;;;;;13.80;6.88;;;;;;;;;;5093345;28;20012;-74
2021/05/09 04:54:08;;;;;;;17.00;7.60;;;;;;;;;;5090971;28;20032;-74
2021/05/09 04:56:34;;;;;;;12.77;6.63;;;;;;;;;;5078851;28;20510;-73
2021/05/09 04:59:00;;;;;;;11.43;6.93;;;;;;;;;;5081797;28;20052;-74
2021/05/09 05:01:26;;;;;;;13.10;6.63;;;;;;;;;;5083535;28;20103;-73
2021/05/09 05:03:52;;;;;;;13.18;7.07;;;;;;;;;;5096203;28;20024;-74
2021/05/09 05:06:18;;;;;;;14.55;6.80;;;;;;;;;;5095164;28;20051;-74
2021/05/09 05:08:44;;;;;;;16.13;6.97;;;;;;;;;;5080143;28;20467;-75
2021/05/09 05:11:10;;;;;;;12.52;6.35;;;;;;;;;;5098015;28;20512;-74
2021/05/09 05:13:37;;;;;;;12.57;6.90;;;;;;;;;;5093566;28;20089;-74
2021/05/09 05:16:07;;;;;;;15.30;6.72;;;;;;;;;;5090008;28;20515;-74
2021/05/09 05:18:33;;;;;;;14.07;6.78;;;;;;;;;;5091226;28;20402;-79
2021/05/09 05:21:05;;;;;;;13.25;6.63;;;;;;;;;;5074323;28;20028;-74
2021/05/09 05:23:31;;;;;;;15.50;6.97;;;;;;;;;;5087964;28;20039;-74
2021/05/09 05:25:57;;;;;;;15.55;6.68;;;;;;;;;;5089585;28;20123;-73
2021/05/09 05:28:23;;;;;;;12.63;7.05;;;;;;;;;;5089350;28;20101;-74
2021/05/09 05:30:50;;;;;;;14.68;6.22;;;;;;;;;;5090895;28;20029;-74
2021/05/09 05:33:30;;;;;;;14.70;7.13;;;;;;;;;;5091778;28;20028;-74
2021/05/09 05:35:57;;;;;;;14.60;6.65;;;;;;;;;;5074437;28;20124;-74
2021/05/09 05:38:23;;;;;;;13.18;6.88;;;;;;;;;;5092485;28;20032;-74
2021/05/09 05:40:53;;;;;;;11.95;6.78;;;;;;;;;;5091196;28;20036;-74
2021/05/09 05:43:19;;;;;;;13.50;6.53;;;;;;;;;;5091739;28;20544;-75
2021/05/09 05:45:45;;;;;;;11.25;6.25;;;;;;;;;;5087359;28;20039;-75
2021/05/09 05:48:11;;;;;;;12.82;6.10;;;;;;;;;;5092006;28;20046;-75
2021/05/09 05:50:38;;;;;;;14.15;6.18;;;;;;;;;;5072188;28;20049;-75
2021/05/09 05:53:05;;;;;;;14.38;6.78;;;;;;;;;;5094720;28;20098;-75
2021/05/09 05:55:31;;;;;;;12.05;5.40;;;;;;;;;;5074798;28;20196;-75
2021/05/09 05:57:57;;;;;;;13.30;5.28;;;;;;;;;;5092039;28;20039;-76
2021/05/09 06:00:23;;;;;;;10.73;5.32;;;;;;;;;;5053922;28;20049;-74
2021/05/09 06:02:49;;;;;;;12.35;5.00;;;;;;;;;;5087349;28;20020;-75
2021/05/09 06:05:16;;;;;;;10.15;4.72;;;;;;;;;;5090280;28;20035;-76
2021/05/09 06:07:42;;;;;;;13.07;5.85;;;;;;;;;;5091471;28;20035;-75
2021/05/09 06:10:08;;;;;;;11.48;5.00;;;;;;;;;;5093003;28;20024;-74
2021/05/09 06:12:34;;;;;;;11.50;4.70;;;;;;;;;;5070716;28;20024;-74
2021/05/09 06:15:00;;;;;;;9.02;5.03;;;;;;;;;;5087849;28;20023;-74
2021/05/09 06:17:26;;;;;;;10.15;4.80;;;;;;;;;;5091423;28;20085;-75
2021/05/09 06:19:52;;;;;;;11.52;5.93;;;;;;;;;;5072539;28;20028;-74
2021/05/09 06:22:18;;;;;;;11.45;5.72;;;;;;;;;;5091489;28;20032;-74
2021/05/09 06:24:44;;;;;;;11.88;6.30;;;;;;;;;;5090477;28;20109;-75
2021/05/09 06:27:10;;;;;;;10.02;5.75;;;;;;;;;;5091234;28;20024;-73
2021/05/09 06:29:37;;;;;;;9.50;5.57;;;;;;;;;;5091081;28;20103;-75
2021/05/09 06:32:03;;;;;;;12.65;6.60;;;;;;;;;;5090724;28;20024;-73
2021/05/09 06:34:29;;;;;;;14.63;5.95;;;;;;;;;;5090511;28;20056;-73
2021/05/09 06:36:55;;;;;;;14.20;7.28;;;;;;;;;;5088542;28;20028;-74
2021/05/09 06:39:26;;;;;;;14.10;6.68;;;;;;;;;;5080424;28;20186;-74
2021/05/09 06:41:55;;;;;;;11.03;6.87;;;;;;;;;;5085231;28;20032;-74
2021/05/09 06:44:21;;;;;;;13.32;6.60;;;;;;;;;;5089180;28;20273;-73
2021/05/09 06:46:47;;;;;;;13.00;6.88;;;;;;;;;;5089547;28;20032;-74
2021/05/09 06:49:14;;;;;;;13.57;6.72;;;;;;;;;;5093026;28;20023;-75
2021/05/09 06:51:40;;;;;;;14.30;6.63;;;;;;;;;;5111728;28;20502;-75
2021/05/09 06:54:06;;;;;;;13.80;6.70;;;;;;;;;;5091198;28;20024;-72
2021/05/09 06:56:32;;;;;;;27.38;9.05;;;;;;;;;;5088290;28;20043;-69
2021/05/09 06:58:58;;;;;;;17.65;8.57;;;;;;;;;;5082724;28;20051;-69
2021/05/09 07:01:25;;;;;;;16.85;8.65;;;;;;;;;;5090918;28;20019;-70
2021/05/09 07:03:51;;;;;;;19.67;10.63;;;;;;;;;;5086469;28;20050;-67
2021/05/09 07:06:17;;;;;;;17.40;10.88;;;;;;;;;;5089369;28;20089;-66
2021/05/09 07:08:43;;;;;;;23.05;11.98;;;;;;;;;;5097406;28;20028;-67
2021/05/09 07:11:09;;;;;;;20.08;10.80;;;;;;;;;;5091367;28;20029;-66
2021/05/09 07:13:35;;;;;;;24.90;12.38;;;;;;;;;;5084067;28;20483;-66
2021/05/09 07:16:01;;;;;;;23.35;12.60;;;;;;;;;;5089755;28;20031;-67
2021/05/09 07:18:29;;;;;;;23.25;13.18;;;;;;;;;;5097793;28;20042;-67
2021/05/09 07:20:57;;;;;;;21.88;14.02;;;;;;;;;;5089060;28;20028;-67
2021/05/09 07:23:23;;;;;;;32.90;17.10;;;;;;;;;;5090203;28;20031;-67
2021/05/09 07:25:50;;;;;;;29.70;15.20;;;;;;;;;;5087137;28;20032;-67
2021/05/09 07:28:18;;;;;;;31.05;15.88;;;;;;;;;;5085707;28;20036;-67
2021/05/09 07:30:44;;;;;;;28.95;16.90;;;;;;;;;;5089613;28;20516;-67
2021/05/09 07:33:14;;;;;;;26.90;16.40;;;;;;;;;;5086933;28;20027;-67
2021/05/09 07:35:44;;;;;;;27.00;16.42;;;;;;;;;;5086002;28;20028;-67
2021/05/09 07:38:11;;;;;;;25.27;17.10;;;;;;;;;;5089777;28;20024;-67
2021/05/09 07:40:37;;;;;;;23.42;16.20;;;;;;;;;;5083295;28;20157;-67
2021/05/09 07:43:03;;;;;;;25.95;16.92;;;;;;;;;;5065107;28;20652;-67
2021/05/09 07:45:30;;;;;;;25.02;14.95;;;;;;;;;;5089031;28;20075;-67
2021/05/09 07:47:56;;;;;;;24.10;14.95;;;;;;;;;;5089718;28;20024;-68
2021/05/09 07:50:25;;;;;;;21.40;11.98;;;;;;;;;;5076780;28;20111;-68
2021/05/09 07:52:52;;;;;;;18.38;11.50;;;;;;;;;;5088205;28;20021;-68
2021/05/09 07:55:18;;;;;;;17.77;11.30;;;;;;;;;;5090592;28;20498;-67
2021/05/09 07:57:45;;;;;;;20.92;11.27;;;;;;;;;;5074492;28;20502;-67
2021/05/09 08:00:13;;;;;;;19.00;12.10;;;;;;;;;;5086080;28;20040;-68
2021/05/09 08:02:43;;;;;;;21.15;10.27;;;;;;;;;;5093158;28;20032;-67
2021/05/09 08:05:10;;;;;;;15.85;9.93;;;;;;;;;;5091344;28;20024;-68
2021/05/09 08:07:36;;;;;;;17.23;9.88;;;;;;;;;;5075683;28;20024;-68
2021/05/09 08:10:02;;;;;;;14.82;8.82;;;;;;;;;;5082140;28;20023;-68
2021/05/09 08:12:28;;;;;;;13.90;8.85;;;;;;;;;;5092797;28;20019;-70
2021/05/09 08:14:54;;;;;;;14.77;8.23;;;;;;;;;;5093527;28;20101;-68
2021/05/09 08:17:20;;;;;;;14.15;7.05;;;;;;;;;;5093227;28;20051;-68
2021/05/09 08:19:46;;;;;;;12.82;7.90;;;;;;;;;;5085415;28;20471;-68
2021/05/09 08:22:12;;;;;;;16.25;8.77;;;;;;;;;;5089136;28;20032;-69
2021/05/09 08:24:38;;;;;;;14.50;8.75;;;;;;;;;;5073120;28;20067;-69
2021/05/09 08:27:05;;;;;;;16.15;8.88;;;;;;;;;;5092060;28;20020;-69
2021/05/09 08:29:32;;;;;;;13.88;7.40;;;;;;;;;;5071203;28;20069;-70
2021/05/09 08:31:58;;;;;;;14.52;8.07;;;;;;;;;;5073575;28;20019;-70
2021/05/09 08:34:24;;;;;;;11.75;7.47;;;;;;;;;;5073863;28;20471;-70
2021/05/09 08:36:50;;;;;;;15.13;7.82;;;;;;;;;;5074432;28;20020;-70
2021/05/09 08:39:16;;;;;;;14.90;7.95;;;;;;;;;;5087738;28;20444;-71
2021/05/09 08:41:42;;;;;;;14.13;8.35;;;;;;;;;;5087860;28;20031;-70
2021/05/09 08:44:09;;;;;;;14.13;7.47;;;;;;;;;;5087062;28;20033;-69
2021/05/09 08:46:36;;;;;;;14.20;7.85;;;;;;;;;;5084822;28;20169;-71
2021/05/09 08:49:03;;;;;;;14.52;8.63;;;;;;;;;;5065576;28;20122;-71
2021/05/09 08:51:30;;;;;;;13.85;8.30;;;;;;;;;;5063691;28;20040;-69
2021/05/09 08:53:56;;;;;;;14.23;8.52;;;;;;;;;;5082856;28;20300;-71
2021/05/09 08:56:24;;;;;;;16.65;8.35;;;;;;;;;;5084953;28;20039;-71
2021/05/09 08:58:50;;;;;;;14.48;8.55;;;;;;;;;;5079084;28;20043;-71
2021/05/09 09:01:16;;;;;;;15.07;7.40;;;;;;;;;;5084560;28;20497;-71
2021/05/09 09:03:43;;;;;;;15.02;8.32;;;;;;;;;;5082915;28;20047;-72
2021/05/09 09:06:14;;;;;;;11.50;7.30;;;;;;;;;;5080110;28;20487;-72
2021/05/09 09:08:49;;;;;;;11.80;7.83;;;;;;;;;;5082215;28;20052;-73
2021/05/09 09:11:24;;;;;;;13.68;7.65;;;;;;;;;;5081135;28;20018;-74
2021/05/09 09:14:06;;;;;;;13.40;7.55;;;;;;;;;;5081054;28;20036;-73
2021/05/09 09:16:32;;;;;;;11.93;7.13;;;;;;;;;;5082454;28;20035;-72
2021/05/09 09:19:06;;;;;;;11.70;7.22;;;;;;;;;;5078593;28;20383;-71
2021/05/09 09:21:32;;;;;;;14.00;6.35;;;;;;;;;;5068209;28;20047;-72
2021/05/09 09:24:05;;;;;;;12.68;7.18;;;;;;;;;;5086172;28;20061;-72
2021/05/09 09:26:41;;;;;;;14.50;6.53;;;;;;;;;;5083636;28;20039;-73
2021/05/09 09:29:28;;;;;;;12.45;7.65;;;;;;;;;;5043436;28;20997;-73
2021/05/09 09:32:13;;;;;;;14.15;7.18;;;;;;;;;;5075459;28;20096;-74
2021/05/09 09:34:43;;;;;;;14.75;7.80;;;;;;;;;;5059779;28;20406;-74
2021/05/09 09:37:10;;;;;;;13.65;7.10;;;;;;;;;;5081471;28;20402;-76
2021/05/09 09:39:48;;;;;;;13.55;6.07;;;;;;;;;;5078812;28;20495;-77
2021/05/09 09:42:14;;;;;;;12.40;7.50;;;;;;;;;;5080905;28;20115;-73
2021/05/09 09:44:41;;;;;;;14.75;6.97;;;;;;;;;;5083842;28;20065;-72
2021/05/09 09:47:07;;;;;;;10.73;6.43;;;;;;;;;;5081348;28;20035;-70
2021/05/09 09:49:37;;;;;;;12.80;8.13;;;;;;;;;;5075735;28;20031;-72
2021/05/09 09:52:05;;;;;;;16.60;7.45;;;;;;;;;;5081180;28;20028;-71
2021/05/09 09:54:38;;;;;;;12.00;6.65;;;;;;;;;;5082062;28;20390;-73
2021/05/09 09:57:06;;;;;;;11.40;7.20;;;;;;;;;;5062827;28;20048;-71
2021/05/09 09:59:32;;;;;;;11.40;6.25;;;;;;;;;;5075982;28;20051;-70
2021/05/09 10:01:59;;;;;;;11.02;7.05;;;;;;;;;;5081169;28;20720;-68
2021/05/09 10:04:25;;;;;;;11.32;6.95;;;;;;;;;;5080175;28;20032;-73
2021/05/09 10:06:51;;;;;;;9.85;6.13;;;;;;;;;;5079077;28;20026;-71
2021/05/09 10:09:17;;;;;;;9.70;6.22;;;;;;;;;;5082220;28;20071;-72
2021/05/09 10:11:43;;;;;;;12.75;5.82;;;;;;;;;;5089014;28;20020;-72
2021/05/09 10:14:09;;;;;;;9.43;4.80;;;;;;;;;;5089192;28;20059;-71
2021/05/09 10:16:37;;;;;;;8.05;4.07;;;;;;;;;;5089452;28;20031;-72
2021/05/09 10:19:05;;;;;;;8.48;5.13;;;;;;;;;;5068653;28;20020;-74
2021/05/09 10:21:32;;;;;;;10.93;4.55;;;;;;;;;;5087491;28;20086;-70
2021/05/09 10:24:13;;;;;;;8.77;4.85;;;;;;;;;;5084688;28;20483;-70
2021/05/09 10:26:45;;;;;;;10.90;5.60;;;;;;;;;;5086587;28;20486;-70
2021/05/09 10:29:46;;;;;;;10.98;4.57;;;;;;;;;;5082295;28;20024;-72
2021/05/09 10:32:21;;;;;;;9.43;4.43;;;;;;;;;;5081992;28;20032;-71
2021/05/09 10:40:22;;;;;;;9.02;4.75;;;;;;;;;;5071354;28;20499;-73
2021/05/09 10:43:03;;;;;;;10.90;5.18;;;;;;;;;;5079237;28;20020;-75
2021/05/09 10:45:30;;;;;;;10.00;4.78;;;;;;;;;;5077614;28;20518;-71
2021/05/09 10:48:29;;;;;;;9.27;4.68;;;;;;;;;;5090909;28;20024;-72
2021/05/09 10:50:56;;;;;;;12.73;6.25;;;;;;;;;;5069557;28;20024;-73
2021/05/09 10:53:35;;;;;;;11.43;5.47;;;;;;;;;;5084035;28;20020;-72
2021/05/09 10:56:07;;;;;;;17.27;5.95;;;;;;;;;;5074007;28;20028;-73
2021/05/09 10:58:32;;;;;;;;;;;;;;;;;;5084280;28;20111;-72
2021/05/09 11:00:58;;;;;;;13.02;4.63;;;;;;;;;;5077271;28;20015;-73
2021/05/09 11:03:37;;;;;;;12.27;5.72;;;;;;;;;;5086314;28;20059;-74
2021/05/09 11:06:10;;;;;;;8.82;5.57;;;;;;;;;;5074303;28;20031;-71
2021/05/09 11:08:42;;;;;;;10.00;5.57;;;;;;;;;;5088075;28;20031;-69
2021/05/09 11:11:14;;;;;;;12.40;4.63;;;;;;;;;;5089966;28;20028;-69
2021/05/09 11:14:11;;;;;;;11.25;5.55;;;;;;;;;;5090566;28;20031;-69
2021/05/09 11:16:41;;;;;;;10.10;5.45;;;;;;;;;;5084802;28;20020;-67
2021/05/09 11:19:13;;;;;;;10.27;5.70;;;;;;;;;;5065478;28;20028;-71
2021/05/09 11:21:44;;;;;;;10.57;5.78;;;;;;;;;;5079725;28;20034;-70
2021/05/09 11:24:13;;;;;;;10.50;5.55;;;;;;;;;;5078174;28;20032;-70
2021/05/09 11:26:40;;;;;;;7.60;4.40;;;;;;;;;;5076099;28;20032;-76
2021/05/09 11:29:06;;;;;;;8.48;4.35;;;;;;;;;;5075392;28;20046;-70
2021/05/09 11:31:34;;;;;;;12.68;4.90;;;;;;;;;;5080602;28;20051;-67
2021/05/09 11:34:01;;;;;;;13.88;5.97;;;;;;;;;;5080682;28;20024;-74
2021/05/09 11:36:27;;;;;;;10.13;5.03;;;;;;;;;;5061539;28;20028;-71
2021/05/09 11:39:12;;;;;;;7.50;3.78;;;;;;;;;;5076700;28;20028;-70
2021/05/09 11:41:51;;;;;;;9.23;4.35;;;;;;;;;;5085648;28;20088;-75
2021/05/09 11:44:17;;;;;;;9.30;4.30;;;;;;;;;;5065606;28;20437;-73
2021/05/09 11:46:44;;;;;;;10.10;4.07;;;;;;;;;;5089883;28;20509;-73
2021/05/09 11:49:17;;;;;;;9.50;4.47;;;;;;;;;;5085720;28;20503;-73
2021/05/09 11:51:58;;;;;;;11.70;4.78;;;;;;;;;;5084618;28;20625;-74
2021/05/09 11:54:25;;;;;;;6.45;3.92;;;;;;;;;;5076582;28;20098;-71
2021/05/09 11:56:51;;;;;;;9.05;4.97;;;;;;;;;;5078736;28;20082;-74
2021/05/09 11:59:47;;;;;;;8.80;4.30;;;;;;;;;;5076587;28;20044;-71
2021/05/09 12:02:13;;;;;;;9.65;4.32;;;;;;;;;;5073769;28;20084;-73
2021/05/09 12:04:40;;;;;;;12.02;4.45;;;;;;;;;;5085204;28;20062;-71
2021/05/09 12:07:07;;;;;;;11.73;4.70;;;;;;;;;;5089041;28;20036;-73
2021/05/09 12:09:34;;;;;;;9.80;4.60;;;;;;;;;;5086589;28;20031;-74
2021/05/09 12:12:00;;;;;;;11.23;4.85;;;;;;;;;;5084401;28;20043;-74
2021/05/09 12:14:27;;;;;;;7.93;4.28;;;;;;;;;;5086884;28;20016;-73
2021/05/09 12:16:53;;;;;;;8.80;4.78;;;;;;;;;;5087262;28;20090;-70
2021/05/09 12:19:20;;;;;;;11.02;4.45;;;;;;;;;;5086648;28;20396;-73
2021/05/09 12:21:56;;;;;;;7.05;4.18;;;;;;;;;;5085957;28;20031;-76
2021/05/09 12:24:23;;;;;;;10.15;4.50;;;;;;;;;;5068383;28;20036;-74
2021/05/09 12:26:59;;;;;;;7.72;4.57;;;;;;;;;;5085936;28;20115;-71
2021/05/09 12:29:25;;;;;;;9.05;4.45;;;;;;;;;;5085104;28;20028;-71
2021/05/09 12:31:52;;;;;;;10.35;4.18;;;;;;;;;;5080045;28;20158;-69
2021/05/09 12:34:25;;;;;;;10.05;4.18;;;;;;;;;;5089805;28;20009;-71
2021/05/09 12:37:10;;;;;;;11.23;4.40;;;;;;;;;;5082342;28;20071;-69
2021/05/09 12:39:37;;;;;;;20.13;4.78;;;;;;;;;;5073235;28;20032;-68
2021/05/09 12:42:04;;;;;;;8.60;4.55;;;;;;;;;;5085554;28;20028;-68
2021/05/09 12:44:30;;;;;;;13.80;5.07;;;;;;;;;;5083822;28;20021;-69
2021/05/09 12:46:57;;;;;;;9.25;4.65;;;;;;;;;;5089757;28;20073;-71
2021/05/09 12:49:32;;;;;;;9.73;5.20;;;;;;;;;;5083636;28;20031;-71
2021/05/09 12:52:02;;;;;;;7.43;3.80;;;;;;;;;;5089693;28;20012;-67
2021/05/09 12:54:31;;;;;;;11.05;4.63;;;;;;;;;;5082688;28;20077;-70
2021/05/09 12:57:16;;;;;;;8.80;4.53;;;;;;;;;;5091559;28;20028;-67
2021/05/09 13:00:08;;;;;;;12.55;4.45;;;;;;;;;;5089918;28;20056;-66
2021/05/09 13:02:47;;;;;;;8.38;4.10;;;;;;;;;;5079782;28;20131;-69
2021/05/09 13:05:14;;;;;;;12.60;5.53;;;;;;;;;;5091937;28;20118;-67
2021/05/09 13:07:40;;;;;;;10.20;4.53;;;;;;;;;;5080223;28;20024;-72
2021/05/09 13:10:06;;;;;;;12.00;5.05;;;;;;;;;;5077890;28;20051;-69
2021/05/09 13:12:32;;;;;;;14.05;5.50;;;;;;;;;;5082120;28;20058;-69
2021/05/09 13:14:58;;;;;;;8.63;5.18;;;;;;;;;;5083101;28;20055;-68
2021/05/09 13:17:25;;;;;;;11.60;5.50;;;;;;;;;;5082979;28;20035;-68
2021/05/09 13:19:53;;;;;;;10.10;4.35;;;;;;;;;;5079243;28;20020;-67
2021/05/09 13:22:19;;;;;;;9.55;5.18;;;;;;;;;;5088734;28;20513;-70
2021/05/09 13:24:47;;;;;;;10.95;5.15;;;;;;;;;;5082373;28;20057;-68
2021/05/09 13:27:14;;;;;;;9.52;5.22;;;;;;;;;;5079953;28;20059;-68
2021/05/09 13:29:40;;;;;;;11.82;6.38;;;;;;;;;;5079557;28;20016;-69
2021/05/09 13:32:06;;;;;;;10.85;5.03;;;;;;;;;;5064923;28;20024;-68
2021/05/09 13:34:32;;;;;;;12.15;5.72;;;;;;;;;;5083477;28;20024;-67
2021/05/09 13:36:59;;;;;;;9.95;5.07;;;;;;;;;;5083526;28;20035;-67
2021/05/09 13:39:25;;;;;;;11.25;4.90;;;;;;;;;;5080979;28;20056;-70
2021/05/09 13:41:51;;;;;;;7.43;4.78;;;;;;;;;;5086779;28;20035;-68
2021/05/09 13:44:17;;;;;;;9.60;5.20;;;;;;;;;;5083283;28;20024;-68
2021/05/09 13:46:43;;;;;;;8.35;4.63;;;;;;;;;;5081913;28;20032;-69
2021/05/09 13:49:09;;;;;;;10.40;4.90;;;;;;;;;;5078481;28;20021;-69
2021/05/09 13:51:35;;;;;;;7.88;4.63;;;;;;;;;;5079468;28;20436;-68
2021/05/09 13:54:02;;;;;;;8.00;4.47;;;;;;;;;;5082765;28;20020;-68
2021/05/09 13:56:28;;;;;;;10.20;4.75;;;;;;;;;;5082059;28;20309;-67
2021/05/09 13:58:55;;;;;;;12.02;5.07;;;;;;;;;;5079989;28;20032;-68
2021/05/09 14:01:22;;;;;;;10.65;4.68;;;;;;;;;;5083247;28;20296;-69
2021/05/09 14:03:48;;;;;;;7.97;4.78;;;;;;;;;;5081502;28;20434;-68
2021/05/09 14:06:14;;;;;;;9.35;4.70;;;;;;;;;;5081381;28;20483;-70
2021/05/09 14:08:41;;;;;;;11.13;4.53;;;;;;;;;;5081267;28;20020;-68
2021/05/09 14:11:07;;;;;;;12.85;4.78;;;;;;;;;;5061794;28;20407;-69
2021/05/09 14:13:34;;;;;;;10.95;4.90;;;;;;;;;;5082668;28;20525;-68
2021/05/09 14:16:00;;;;;;;14.93;4.85;;;;;;;;;;5083901;28;20032;-68
2021/05/09 14:18:26;;;;;;;9.45;4.85;;;;;;;;;;5062797;28;20032;-68
2021/05/09 14:20:53;;;;;;;10.80;4.47;;;;;;;;;;5075445;28;20131;-67
2021/05/09 14:23:19;;;;;;;9.45;4.55;;;;;;;;;;5083864;28;20028;-68
2021/05/09 14:25:45;;;;;;;6.90;4.25;;;;;;;;;;5084744;28;20078;-68
2021/05/09 14:28:12;;;;;;;9.98;4.53;;;;;;;;;;5078840;28;20031;-67
2021/05/09 14:30:38;;;;;;;7.43;4.90;;;;;;;;;;5076921;28;20050;-67
2021/05/09 14:33:04;;;;;;;8.80;4.60;;;;;;;;;;5083888;28;20024;-67
2021/05/09 14:35:30;;;;;;;8.68;4.38;;;;;;;;;;5090444;28;20023;-67
2021/05/09 14:37:57;;;;;;;6.30;4.05;;;;;;;;;;5077139;28;20036;-66
2021/05/09 14:40:24;;;;;;;7.60;4.03;;;;;;;;;;5060092;28;20019;-66